createdAt,value
2018-01-03T06:26:21.720Z,11.03
2018-01-03T06:28:53.642Z,8.63
2018-01-03T06:31:26.246Z,7.40
2018-01-03T06:33:58.130Z,8.27
2018-01-03T06:36:30.014Z,9.37
2018-01-03T06:39:02.651Z,7.13
2018-01-03T06:41:35.306Z,10.23
2018-01-03T06:44:07.296Z,14.87
2018-01-03T06:46:39.162Z,12.50
2018-01-03T06:49:11.057Z,12.97
2018-01-03T06:51:43.690Z,13.53
2018-01-03T06:54:15.572Z,11.40
2018-01-03T06:56:47.434Z,15.87
2018-01-03T06:59:19.330Z,9.83
2018-01-03T07:01:51.207Z,15.37
2018-01-03T07:04:23.095Z,11.70
2018-01-03T07:06:54.962Z,13.53
2018-01-03T07:09:26.849Z,18.87
2018-01-03T07:11:59.499Z,14.63
2018-01-03T07:14:31.383Z,11.10
2018-01-03T07:17:04.032Z,15.93
2018-01-03T07:19:35.907Z,15.13
2018-01-03T07:22:07.776Z,19.73
2018-01-03T07:24:39.682Z,13.00
2018-01-03T07:27:11.692Z,17.33
2018-01-03T07:29:44.399Z,12.87
2018-01-03T07:32:17.035Z,16.43
2018-01-03T07:34:48.948Z,18.00
2018-01-03T07:37:20.816Z,17.83
2018-01-03T07:39:52.718Z,16.00
2018-01-03T07:42:24.586Z,16.13
2018-01-03T07:44:56.490Z,13.27
2018-01-03T07:47:28.364Z,20.83
2018-01-03T07:50:00.258Z,13.03
2018-01-03T07:52:32.130Z,16.60
2018-01-03T07:55:04.020Z,18.10
2018-01-03T07:57:36.662Z,16.87
2018-01-03T08:00:08.547Z,20.80
2018-01-03T08:02:41.194Z,19.33
2018-01-03T08:05:13.191Z,13.97
2018-01-03T08:07:45.814Z,11.40
2018-01-03T08:10:17.698Z,16.13
2018-01-03T08:12:49.563Z,13.53
2018-01-03T08:15:21.472Z,11.67
2018-01-03T08:17:53.347Z,13.87
2018-01-03T08:20:25.252Z,19.73
2018-01-03T08:22:57.120Z,18.50
2018-01-03T08:25:29.779Z,14.73
2018-01-03T08:28:01.651Z,12.00
2018-01-03T08:30:34.317Z,17.57
2018-01-03T08:33:06.182Z,15.17
2018-01-03T08:35:38.077Z,20.47
2018-01-03T08:38:09.938Z,19.00
2018-01-03T08:40:41.826Z,19.90
2018-01-03T08:43:13.686Z,20.47
2018-01-03T08:45:45.586Z,19.43
2018-01-03T08:48:17.451Z,11.00
2018-01-03T08:50:50.120Z,14.07
2018-01-03T08:53:21.978Z,12.77
2018-01-03T08:55:53.874Z,10.50
2018-01-03T08:58:25.743Z,24.67
2018-01-03T09:00:57.638Z,18.73
2018-01-03T09:03:29.505Z,16.33
2018-01-03T09:06:01.725Z,13.17
2018-01-03T09:08:33.591Z,14.47
2018-01-03T09:11:05.496Z,11.97
2018-01-03T09:13:37.368Z,14.70
2018-01-03T09:16:09.271Z,12.27
2018-01-03T09:18:41.152Z,14.07
2018-01-03T09:21:13.047Z,14.53
2018-01-03T09:23:44.919Z,15.90
2018-01-03T09:26:17.586Z,17.07
2018-01-03T09:28:49.453Z,19.47
2018-01-03T09:31:21.347Z,15.77
2018-01-03T09:33:53.226Z,14.43
2018-01-03T09:36:25.121Z,17.80
2018-01-03T09:38:56.995Z,13.43
2018-01-03T09:41:28.886Z,14.90
2018-01-03T09:44:00.763Z,16.77
2018-01-03T09:46:32.648Z,14.57
2018-01-03T09:49:04.552Z,14.77
2018-01-03T09:51:37.203Z,16.00
2018-01-03T09:54:09.102Z,18.47
2018-01-03T09:56:40.987Z,17.73
2018-01-03T09:59:12.859Z,17.87
2018-01-03T10:01:44.754Z,15.73
2018-01-03T10:04:16.623Z,16.87
2018-01-03T10:06:49.270Z,13.80
2018-01-03T10:09:21.137Z,13.93
2018-01-03T10:11:53.023Z,12.30
2018-01-03T10:14:25.656Z,12.50
2018-01-03T10:16:57.557Z,12.60
2018-01-03T10:19:30.187Z,14.13
2018-01-03T10:22:02.075Z,19.27
2018-01-03T10:24:33.947Z,12.67
2018-01-03T10:27:05.846Z,16.03
2018-01-03T10:29:37.716Z,11.40
2018-01-03T10:32:09.604Z,16.87
2018-01-03T10:34:42.242Z,11.80
2018-01-03T10:37:14.130Z,16.90
2018-01-03T10:39:46.011Z,16.27
2018-01-03T10:42:18.223Z,16.87
2018-01-03T10:44:50.091Z,20.40
2018-01-03T10:47:21.983Z,15.83
2018-01-03T10:49:53.855Z,21.73
2018-01-03T10:52:25.746Z,17.80
2018-01-03T10:54:58.395Z,16.53
2018-01-03T10:57:30.279Z,19.50
2018-01-03T11:00:02.916Z,15.50
2018-01-03T11:02:34.794Z,11.27
2018-01-03T11:05:06.683Z,16.47
2018-01-03T11:07:39.381Z,14.60
2018-01-03T11:10:11.247Z,16.87
2018-01-03T11:12:43.139Z,15.50
2018-01-03T11:15:15.016Z,18.33
2018-01-03T11:17:46.917Z,16.70
2018-01-03T11:20:18.799Z,13.30
2018-01-03T11:22:50.738Z,16.40
2018-01-03T11:25:24.180Z,20.83
2018-01-03T11:27:56.083Z,17.07
2018-01-03T11:30:28.727Z,20.03
2018-01-03T11:33:00.641Z,14.93
2018-01-03T11:35:32.515Z,19.47
2018-01-03T11:38:04.406Z,19.27
2018-01-03T11:40:36.286Z,17.00
2018-01-03T11:43:08.975Z,12.70
2018-01-03T11:45:41.606Z,15.83
2018-01-03T11:48:14.304Z,19.47
2018-01-03T11:50:46.175Z,16.73
2018-01-03T11:53:18.088Z,12.93
2018-01-03T11:55:49.955Z,23.07
2018-01-03T11:58:21.854Z,20.30
2018-01-03T12:00:53.719Z,17.73
2018-01-03T12:03:25.619Z,21.20
2018-01-03T12:05:57.491Z,19.97
2018-01-03T12:08:29.374Z,17.23
2018-01-03T12:11:01.246Z,13.03
2018-01-03T12:13:33.134Z,21.63
2018-01-03T12:16:05.770Z,22.57
2018-01-03T12:18:37.676Z,19.40
2018-01-03T12:21:10.364Z,14.73
2018-01-03T12:23:43.017Z,17.43
2018-01-03T12:26:14.897Z,21.10
2018-01-03T12:28:47.551Z,20.87
2018-01-03T12:31:19.427Z,22.07
2018-01-03T12:33:52.083Z,13.63
2018-01-03T12:36:23.960Z,20.63
2018-01-03T12:38:55.861Z,16.23
2018-01-03T12:41:27.727Z,13.83
2018-01-03T12:43:59.624Z,12.17
2018-01-03T12:46:31.505Z,23.53
2018-01-03T12:49:04.159Z,21.23
2018-01-03T12:51:36.024Z,16.57
2018-01-03T12:54:07.928Z,17.00
2018-01-03T12:56:39.800Z,17.40
2018-01-03T12:59:11.683Z,13.87
2018-01-03T13:01:43.594Z,14.83
2018-01-03T13:04:16.255Z,20.47
2018-01-03T13:06:48.130Z,15.77
2018-01-03T13:09:20.795Z,12.90
2018-01-03T13:11:53.431Z,14.63
2018-01-03T13:14:25.339Z,18.67
2018-01-03T13:16:57.202Z,17.97
2018-01-03T13:19:29.864Z,17.07
2018-01-03T13:22:01.731Z,17.43
2018-01-03T13:24:34.392Z,18.13
2018-01-03T13:27:06.262Z,21.40
2018-01-03T13:29:38.938Z,14.53
2018-01-03T13:32:10.807Z,19.80
2018-01-03T13:34:43.464Z,17.10
2018-01-03T13:37:15.331Z,16.83
2018-01-03T13:39:47.235Z,21.43
2018-01-03T13:42:19.098Z,20.77
2018-01-03T13:44:51.000Z,19.80
2018-01-03T13:47:22.866Z,18.23
2018-01-03T13:49:54.774Z,15.13
2018-01-03T13:52:26.659Z,18.00
2018-01-03T13:54:58.551Z,11.30
2018-01-03T13:57:30.424Z,17.00
2018-01-03T14:00:02.309Z,14.80
2018-01-03T14:02:34.179Z,12.37
2018-01-03T14:05:06.071Z,12.50
2018-01-03T14:07:37.945Z,12.73
2018-01-03T14:10:09.839Z,12.50
2018-01-03T14:12:42.466Z,17.17
2018-01-03T14:15:14.360Z,16.37
2018-01-03T14:17:46.231Z,10.77
2018-01-03T14:20:18.895Z,18.37
2018-01-03T14:22:50.767Z,13.40
2018-01-03T14:25:23.438Z,12.00
2018-01-03T14:27:55.294Z,18.13
2018-01-03T14:30:27.227Z,17.67
2018-01-03T14:32:59.110Z,19.50
2018-01-03T14:35:31.010Z,16.57
2018-01-03T14:38:02.876Z,15.30
2018-01-03T14:40:34.867Z,19.23
2018-01-03T14:43:06.831Z,21.90
2018-01-03T14:45:38.722Z,14.83
2018-01-03T14:48:10.667Z,16.23
2018-01-03T14:50:42.616Z,19.83
2018-01-03T14:53:14.950Z,14.97
2018-01-03T14:55:46.962Z,16.53
2018-01-03T14:58:18.838Z,22.10
2018-01-03T15:00:50.742Z,22.97
2018-01-03T15:03:22.631Z,20.40
2018-01-03T15:05:54.535Z,16.67
2018-01-03T15:08:27.172Z,15.73
2018-01-03T15:10:59.071Z,15.93
2018-01-03T15:13:31.711Z,16.17
2018-01-03T15:16:03.606Z,14.93
2018-01-03T15:18:36.234Z,16.97
2018-01-03T15:21:08.207Z,22.60
2018-01-03T15:23:40.071Z,15.90
2018-01-03T15:26:11.968Z,24.33
2018-01-03T15:28:44.594Z,21.83
2018-01-03T15:31:16.497Z,21.87
2018-01-03T15:33:48.372Z,18.40
2018-01-03T15:36:21.039Z,22.60
2018-01-03T15:38:53.672Z,19.13
2018-01-03T15:41:25.567Z,13.20
2018-01-03T15:43:57.436Z,17.00
2018-01-03T15:46:30.087Z,20.37
2018-01-03T15:49:02.044Z,17.30
2018-01-03T15:51:33.943Z,20.17
2018-01-03T15:54:06.580Z,20.30
2018-01-03T15:56:38.471Z,23.37
2018-01-03T15:59:10.343Z,19.10
2018-01-03T16:01:43.004Z,23.17
2018-01-03T16:04:14.870Z,18.03
2018-01-03T16:06:46.770Z,22.43
2018-01-03T16:09:18.643Z,27.93
2018-01-03T16:11:50.539Z,14.07
2018-01-03T16:14:22.406Z,15.60
2018-01-03T16:16:54.376Z,19.63
2018-01-03T16:19:27.006Z,24.30
2018-01-03T16:21:58.894Z,17.50
2018-01-03T16:24:30.767Z,22.20
2018-01-03T16:27:02.648Z,25.97
2018-01-03T16:29:35.282Z,19.73
2018-01-03T16:32:07.172Z,20.57
2018-01-03T16:34:39.808Z,22.70
2018-01-03T16:37:11.695Z,26.83
2018-01-03T16:39:43.559Z,28.03
2018-01-03T16:42:15.462Z,26.20
2018-01-03T16:44:47.332Z,21.90
2018-01-03T16:47:19.223Z,26.27
2018-01-03T16:49:51.088Z,27.60
2018-01-03T16:52:22.995Z,24.07
2018-01-03T16:54:54.870Z,33.17
2018-01-03T16:57:26.774Z,23.20
2018-01-03T16:59:58.646Z,26.40
2018-01-03T17:02:31.303Z,31.67
2018-01-03T17:05:03.179Z,24.30
2018-01-03T17:07:35.087Z,29.23
2018-01-03T17:10:06.952Z,20.50
2018-01-03T17:12:38.855Z,24.57
2018-01-03T17:15:10.715Z,26.27
2018-01-03T17:17:42.616Z,19.37
2018-01-03T17:20:14.489Z,24.07
2018-01-03T17:22:46.386Z,20.90
2018-01-03T17:25:18.271Z,24.23
2018-01-03T17:27:50.935Z,16.87
2018-01-03T17:30:22.807Z,24.47
2018-01-03T17:32:55.459Z,21.63
2018-01-03T17:35:27.430Z,21.43
2018-01-03T17:37:59.322Z,23.00
2018-01-03T17:40:31.190Z,24.10
2018-01-03T17:43:03.354Z,26.90
2018-01-03T17:45:35.228Z,33.07
2018-01-03T17:48:07.120Z,29.53
2018-01-03T17:50:38.997Z,28.27
2018-01-03T17:53:10.896Z,26.60
2018-01-03T17:55:42.754Z,37.33
2018-01-03T17:58:14.643Z,31.50
2018-01-03T18:00:46.515Z,33.90
2018-01-03T18:03:18.410Z,31.67
2018-01-03T18:05:51.042Z,29.67
2018-01-03T18:08:22.939Z,33.03
2018-01-03T18:10:54.814Z,35.40
2018-01-03T18:13:27.470Z,31.13
2018-01-03T18:15:59.346Z,36.50
2018-01-03T18:18:32.034Z,35.33
2018-01-03T18:21:04.667Z,33.47
2018-01-03T18:23:37.335Z,39.43
2018-01-03T18:26:09.223Z,36.40
2018-01-03T18:28:41.147Z,42.67
2018-01-03T18:31:13.023Z,33.20
2018-01-03T18:33:44.904Z,31.90
2018-01-03T18:36:16.771Z,33.50
2018-01-03T18:38:48.659Z,29.53
2018-01-03T18:41:21.291Z,44.27
2018-01-03T18:43:53.194Z,30.30
2018-01-03T18:46:25.066Z,40.77
2018-01-03T18:48:56.961Z,33.83
2018-01-03T18:51:28.827Z,34.17
2018-01-03T18:54:00.721Z,43.83
2018-01-03T18:56:32.592Z,38.43
2018-01-03T18:59:05.283Z,39.20
2018-01-03T19:01:37.176Z,37.27
2018-01-03T19:04:09.307Z,37.27
2018-01-03T19:06:41.183Z,32.37
2018-01-03T19:09:13.083Z,33.53
2018-01-03T19:11:44.956Z,35.40
2018-01-03T19:14:16.847Z,40.67
2018-01-03T19:16:48.734Z,36.60
2018-01-03T19:19:20.610Z,36.60
2018-01-03T19:21:52.582Z,37.20
2018-01-03T19:24:24.468Z,37.33
2018-01-03T19:26:56.366Z,35.93
2018-01-03T19:29:28.282Z,38.27
2018-01-03T19:32:00.150Z,36.87
2018-01-03T19:34:32.808Z,43.50
2018-01-03T19:37:04.685Z,44.90
2018-01-03T19:39:36.578Z,32.73
2018-01-03T19:42:08.494Z,42.67
2018-01-03T19:44:40.403Z,29.67
2018-01-03T19:47:12.271Z,32.87
2018-01-03T19:49:44.183Z,32.53
2018-01-03T19:52:16.064Z,34.60
2018-01-03T19:54:48.720Z,35.17
2018-01-03T19:57:20.594Z,34.63
2018-01-03T19:59:53.255Z,32.57
2018-01-03T20:02:25.127Z,34.80
2018-01-03T20:04:57.791Z,31.63
2018-01-03T20:07:29.666Z,35.60
2018-01-03T20:10:02.346Z,34.07
2018-01-03T20:12:35.035Z,32.13
2018-01-03T20:15:06.946Z,30.77
2018-01-03T20:17:38.827Z,36.87
2018-01-03T20:20:10.727Z,40.80
2018-01-03T20:22:42.611Z,42.90
2018-01-03T20:25:14.542Z,34.90
2018-01-03T20:27:46.384Z,42.07
2018-01-03T20:30:18.285Z,38.20
2018-01-03T20:32:50.280Z,37.87
2018-01-03T20:35:22.191Z,41.73
2018-01-03T20:37:54.077Z,42.23
2018-01-03T20:40:25.963Z,35.33
2018-01-03T20:42:57.846Z,40.13
2018-01-03T20:45:29.735Z,38.03
2018-01-03T20:48:01.611Z,40.10
2018-01-03T20:50:33.506Z,30.70
2018-01-03T20:53:05.379Z,34.50
2018-01-03T20:55:37.270Z,35.70
2018-01-03T20:58:09.138Z,36.67
2018-01-03T21:00:41.035Z,48.40
2018-01-03T21:03:12.902Z,46.00
2018-01-03T21:05:44.800Z,44.90
2018-01-03T21:08:17.436Z,38.33
2018-01-03T21:10:49.336Z,41.40
2018-01-03T21:13:22.012Z,44.63
2018-01-03T21:15:54.007Z,41.30
2018-01-03T21:18:25.985Z,46.90
2018-01-03T21:20:57.913Z,37.97
2018-01-03T21:23:29.787Z,45.43
